Time;durP1;ratioP1;P1;durP2;ratioP2;P2;SDS_P1;SDS_P2;PMS_P1;PMS_P2;Temp;Humidity;BMP_temperature;BMP_pressure;BME280_temperature;BME280_humidity;BME280_pressure;Samples;Min_cycle;Max_cycle;Signal;HPM_P1;HPM_P2
2022/01/27 00:01:44;;;;;;;33.42;19.63;;;;;;;3.29;80.68;102657.34;5019938;28;20433;-74
2022/01/27 00:04:16;;;;;;;38.80;22.95;;;;;;;3.30;80.93;102659.97;5030556;28;20038;-74
2022/01/27 00:06:42;;;;;;;38.40;20.45;;;;;;;3.31;81.35;102655.56;5026850;28;20044;-74
2022/01/27 00:09:19;;;;;;;35.95;20.25;;;;;;;3.31;81.28;102652.91;5027501;28;20021;-74
2022/01/27 00:11:47;;;;;;;41.40;22.50;;;;;;;3.30;81.32;102637.84;5027330;28;20041;-74
2022/01/27 00:14:14;;;;;;;36.58;20.73;;;;;;;3.28;81.05;102631.66;5027463;28;20021;-74
2022/01/27 00:16:43;;;;;;;38.75;21.17;;;;;;;3.26;81.01;102630.81;5028655;28;20021;-74
2022/01/27 00:19:10;;;;;;;35.57;23.00;;;;;;;3.26;81.21;102613.09;5029382;28;20099;-74
2022/01/27 00:21:36;;;;;;;40.58;21.52;;;;;;;3.26;81.44;102606.91;5006485;28;20029;-74
2022/01/27 00:24:02;;;;;;;38.72;21.05;;;;;;;3.27;81.04;102608.66;5010513;28;20055;-74
2022/01/27 00:26:27;;;;;;;38.55;20.83;;;;;;;3.28;81.27;102597.13;5027374;28;20032;-74
2022/01/27 00:28:53;;;;;;;34.30;20.05;;;;;;;3.28;80.89;102606.00;5029026;28;20029;-73
2022/01/27 00:31:21;;;;;;;36.90;19.20;;;;;;;3.28;81.02;102599.78;5027401;28;20100;-74
2022/01/27 00:33:48;;;;;;;35.78;20.73;;;;;;;3.28;81.35;102613.97;5023340;28;20033;-74
2022/01/27 00:36:13;;;;;;;34.88;20.00;;;;;;;3.28;81.37;102613.06;5006944;28;20190;-74
2022/01/27 00:38:39;;;;;;;38.10;21.35;;;;;;;3.28;81.21;102615.72;5008086;28;20128;-74
2022/01/27 00:41:05;;;;;;;39.40;21.02;;;;;;;3.29;81.21;102613.06;5027460;28;20068;-74
2022/01/27 00:43:30;;;;;;;36.55;19.80;;;;;;;3.29;81.15;102609.50;5029506;28;20438;-74
2022/01/27 00:45:55;;;;;;;40.30;21.13;;;;;;;3.31;81.16;102610.38;5028916;28;20025;-74
2022/01/27 00:48:21;;;;;;;35.78;21.40;;;;;;;3.33;81.18;102611.22;5021314;28;20046;-74
2022/01/27 00:51:01;;;;;;;35.30;20.48;;;;;;;3.34;81.15;102605.03;5008769;28;20138;-74
2022/01/27 00:55:58;;;;;;;34.60;20.48;;;;;;;3.34;81.02;102589.09;5027263;28;20064;-74
2022/01/27 00:58:47;;;;;;;37.38;20.90;;;;;;;3.36;81.31;102584.59;5028568;28;20127;-74
2022/01/27 01:01:12;;;;;;;36.47;19.50;;;;;;;3.37;81.10;102581.06;5027659;28;20069;-74
2022/01/27 01:03:41;;;;;;;37.05;19.35;;;;;;;3.37;81.10;102580.16;5031751;28;20112;-74
2022/01/27 01:06:32;;;;;;;35.17;21.48;;;;;;;3.38;81.14;102581.94;5006269;28;20328;-73
2022/01/27 01:11:43;;;;;;;35.20;18.90;;;;;;;3.41;81.14;102573.91;5027764;28;20048;-73
2022/01/27 01:14:32;;;;;;;36.42;20.50;;;;;;;3.40;81.10;102573.03;5028269;28;20132;-73
2022/01/27 01:17:23;;;;;;;34.93;19.13;;;;;;;3.40;81.21;102559.75;5027996;28;20087;-74
2022/01/27 01:33:09;;;;;;;31.27;17.42;;;;;;;3.49;80.75;102564.91;5041999;28;20431;-74
2022/01/27 01:35:48;;;;;;;35.10;18.92;;;;;;;3.49;81.20;102554.28;5005973;28;20057;-74
2022/01/27 01:38:17;;;;;;;36.92;18.70;;;;;;;3.50;80.99;102557.81;5011304;28;20064;-74
2022/01/27 01:40:43;;;;;;;36.42;19.92;;;;;;;3.53;81.03;102559.53;5009419;28;20120;-73
2022/01/27 01:43:08;;;;;;;35.30;18.98;;;;;;;3.53;81.12;102538.28;5025211;28;20059;-73
2022/01/27 01:45:35;;;;;;;36.70;19.48;;;;;;;3.53;80.79;102523.22;5025460;28;20112;-74
2022/01/27 01:48:00;;;;;;;33.85;18.55;;;;;;;3.53;80.96;102524.97;5042065;28;20033;-74
2022/01/27 01:50:25;;;;;;;35.83;19.88;;;;;;;3.54;80.66;102514.31;5023906;28;20033;-74
2022/01/27 01:52:51;;;;;;;34.90;19.98;;;;;;;3.54;80.61;102514.31;5007874;28;20045;-74
2022/01/27 01:55:18;;;;;;;35.50;18.35;;;;;;;3.55;80.72;102523.19;5018604;28;20059;-74
2022/01/27 01:57:43;;;;;;;35.80;18.80;;;;;;;3.56;81.07;102528.47;5008914;28;20078;-74
2022/01/27 02:00:10;;;;;;;33.15;19.33;;;;;;;3.58;81.23;102533.78;5008471;28;20049;-74
2022/01/27 02:02:36;;;;;;;34.60;19.02;;;;;;;3.58;81.13;102513.38;5025804;28;20040;-74
2022/01/27 02:05:02;;;;;;;34.88;20.13;;;;;;;3.58;80.63;102517.81;5014260;28;20038;-74
2022/01/27 02:07:51;;;;;;;33.28;18.70;;;;;;;3.57;80.86;102508.94;5005859;28;20025;-74
2022/01/27 02:10:34;;;;;;;33.67;17.80;;;;;;;3.59;80.86;102495.66;5019885;28;20044;-74
2022/01/27 02:18:28;;;;;;;32.13;19.00;;;;;;;3.56;81.05;102472.66;5031194;28;20086;-74
2022/01/27 02:20:54;;;;;;;35.63;19.65;;;;;;;3.55;81.24;102470.03;5029585;28;20071;-74
2022/01/27 02:23:19;;;;;;;38.92;19.08;;;;;;;3.56;81.14;102464.69;5010883;28;20117;-74
2022/01/27 02:25:45;;;;;;;33.25;17.80;;;;;;;3.56;80.93;102466.44;5027049;28;20116;-74
2022/01/27 02:28:10;;;;;;;34.42;19.00;;;;;;;3.58;80.88;102472.63;5029685;28;20159;-74
2022/01/27 02:30:35;;;;;;;35.40;18.05;;;;;;;3.59;81.17;102479.69;5013697;28;20371;-74
2022/01/27 02:33:01;;;;;;;32.33;18.40;;;;;;;3.60;81.65;102485.00;5020628;28;20041;-74
2022/01/27 02:35:29;;;;;;;35.80;19.42;;;;;;;3.62;81.76;102475.19;5020557;28;20111;-74
2022/01/27 02:37:54;;;;;;;33.63;17.00;;;;;;;3.64;81.27;102475.16;5010317;28;20049;-74
2022/01/27 02:40:34;;;;;;;36.78;19.35;;;;;;;3.65;81.49;102475.13;5022634;28;20438;-74
2022/01/27 02:43:03;;;;;;;31.48;16.65;;;;;;;3.66;81.69;102473.34;5028891;28;20094;-74
2022/01/27 02:45:39;;;;;;;35.47;19.23;;;;;;;3.67;81.73;102464.47;5029260;28;20083;-74
2022/01/27 02:48:05;;;;;;;37.38;19.33;;;;;;;3.69;81.26;102468.00;5028884;28;20017;-74
2022/01/27 02:50:30;;;;;;;35.58;18.30;;;;;;;3.70;81.43;102453.78;5028879;28;20521;-74
2022/01/27 02:52:56;;;;;;;31.85;17.85;;;;;;;3.70;81.66;102443.13;5014634;28;20037;-74
2022/01/27 02:55:21;;;;;;;32.20;18.27;;;;;;;3.70;81.56;102453.78;5024168;28;20163;-74
2022/01/27 02:57:46;;;;;;;33.28;17.40;;;;;;;3.70;81.25;102445.78;5029835;28;20026;-74
2022/01/27 03:00:12;;;;;;;34.05;17.10;;;;;;;3.70;81.79;102440.47;5030190;28;20489;-74
2022/01/27 03:02:37;;;;;;;31.13;18.38;;;;;;;3.70;81.84;102435.16;5029128;28;20033;-74
2022/01/27 03:05:03;;;;;;;35.10;18.02;;;;;;;3.71;81.83;102430.75;5029744;28;20030;-74
2022/01/27 03:07:28;;;;;;;31.48;18.05;;;;;;;3.70;81.73;102416.53;5027872;28;20030;-74
2022/01/27 03:09:56;;;;;;;34.50;18.88;;;;;;;3.70;81.70;102407.69;5028638;28;20036;-74
2022/01/27 03:12:27;;;;;;;31.88;18.02;;;;;;;3.69;81.98;102414.81;5028273;28;20045;-74
2022/01/27 03:14:53;;;;;;;33.75;16.65;;;;;;;3.70;81.67;102416.53;5029150;28;20048;-74
2022/01/27 03:17:18;;;;;;;33.10;17.15;;;;;;;3.72;81.79;102430.72;5029289;28;20041;-74
2022/01/27 03:19:43;;;;;;;33.08;18.65;;;;;;;3.73;81.84;102434.22;5027184;28;20475;-74
2022/01/27 03:22:09;;;;;;;34.13;17.17;;;;;;;3.74;82.35;102428.88;5018582;28;20056;-74
2022/01/27 03:24:36;;;;;;;32.65;18.33;;;;;;;3.73;82.50;102405.84;5028276;28;20036;-74
2022/01/27 03:27:02;;;;;;;34.35;17.58;;;;;;;3.72;82.05;102408.53;5028481;28;20457;-74
2022/01/27 03:29:27;;;;;;;33.83;19.05;;;;;;;3.68;82.04;102395.31;5029619;28;20025;-74
2022/01/27 03:31:53;;;;;;;32.90;18.23;;;;;;;3.68;82.45;102395.31;5028216;28;20024;-74
2022/01/27 03:34:19;;;;;;;34.13;18.45;;;;;;;3.69;82.38;102396.19;5029507;28;20052;-74
2022/01/27 03:36:44;;;;;;;34.58;18.67;;;;;;;3.66;82.29;102383.84;5027475;28;20025;-74
2022/01/27 03:39:10;;;;;;;38.17;17.50;;;;;;;3.66;82.71;102388.25;5027913;28;20555;-74
2022/01/27 03:41:37;;;;;;;31.85;16.40;;;;;;;3.65;82.48;102391.84;5030418;28;20029;-74
2022/01/27 03:44:05;;;;;;;33.90;18.63;;;;;;;3.60;83.10;102404.34;5028390;28;20029;-73
2022/01/27 03:46:30;;;;;;;33.25;18.48;;;;;;;3.59;82.71;102392.84;5027419;28;20032;-73
2022/01/27 03:48:55;;;;;;;31.83;17.00;;;;;;;3.58;83.33;102390.22;5029696;28;20654;-73
2022/01/27 03:51:21;;;;;;;31.80;16.73;;;;;;;3.57;83.19;102399.06;5028093;28;20026;-73
2022/01/27 03:53:46;;;;;;;33.95;19.10;;;;;;;3.60;83.56;102393.69;5027613;28;20029;-73
2022/01/27 03:56:11;;;;;;;32.60;16.58;;;;;;;3.63;83.14;102398.97;5027963;28;20037;-73
2022/01/27 03:58:37;;;;;;;33.38;17.33;;;;;;;3.66;83.03;102397.13;5029920;28;20462;-73
2022/01/27 04:01:04;;;;;;;36.20;18.33;;;;;;;3.67;83.43;102384.69;5030058;28;20049;-73
2022/01/27 04:03:33;;;;;;;37.65;19.83;;;;;;;3.67;83.61;102377.63;5037435;28;20042;-75
2022/01/27 04:06:06;;;;;;;35.27;18.23;;;;;;;3.69;83.58;102374.94;5028830;28;20108;-74
2022/01/27 04:08:31;;;;;;;34.15;17.50;;;;;;;3.70;83.74;102367.81;5026928;28;20021;-73
2022/01/27 04:10:57;;;;;;;32.80;16.67;;;;;;;3.71;83.35;102366.91;5029368;28;20104;-74
2022/01/27 04:13:22;;;;;;;35.00;17.73;;;;;;;3.71;83.58;102358.94;5028032;28;20045;-74
2022/01/27 04:15:47;;;;;;;32.47;16.90;;;;;;;3.71;83.61;102353.63;5025394;28;20091;-74
2022/01/27 04:18:13;;;;;;;30.65;15.35;;;;;;;3.70;83.67;102343.88;5027723;28;20106;-74
2022/01/27 04:20:40;;;;;;;36.65;17.58;;;;;;;3.70;83.84;102338.56;5028308;28;20442;-73
2022/01/27 04:23:06;;;;;;;34.38;17.65;;;;;;;3.66;83.96;102349.28;5026969;28;20112;-73
2022/01/27 04:25:32;;;;;;;36.60;19.00;;;;;;;3.68;83.98;102357.22;5026951;28;20032;-74
2022/01/27 04:28:02;;;;;;;34.15;16.73;;;;;;;3.69;84.03;102356.31;5027128;28;20021;-74
2022/01/27 04:30:28;;;;;;;36.10;18.08;;;;;;;3.68;83.94;102349.25;5028233;28;20094;-74
2022/01/27 04:32:57;;;;;;;29.88;16.00;;;;;;;3.68;83.95;102351.91;5045246;28;20104;-74
2022/01/27 04:35:25;;;;;;;33.55;16.55;;;;;;;3.71;83.95;102354.50;5046893;28;20031;-74
2022/01/27 04:38:09;;;;;;;34.65;19.02;;;;;;;3.71;84.03;102350.97;5027705;28;20072;-74
2022/01/27 04:43:29;;;;;;;30.73;16.00;;;;;;;3.68;84.27;102322.66;5028442;28;20120;-74
2022/01/27 04:48:24;;;;;;;32.80;15.60;;;;;;;3.63;84.24;102324.50;5028071;28;20021;-74
2022/01/27 04:50:51;;;;;;;33.53;16.23;;;;;;;3.61;84.23;102326.34;5028325;28;20021;-74
2022/01/27 04:53:23;;;;;;;35.10;17.00;;;;;;;3.59;84.51;102323.72;5027123;28;20404;-74
2022/01/27 04:55:49;;;;;;;33.03;16.10;;;;;;;3.57;84.46;102322.84;5028474;28;20091;-74
2022/01/27 04:58:19;;;;;;;34.47;17.42;;;;;;;3.58;84.72;102321.09;5026336;28;20029;-74
2022/01/27 05:00:44;;;;;;;;;;;;;;;3.63;84.32;102316.53;5028931;28;20026;-74
2022/01/27 05:03:16;;;;;;;30.58;15.57;;;;;;;3.60;84.73;102308.63;5044527;28;19915;-75
2022/01/27 05:05:41;;;;;;;36.90;18.52;;;;;;;3.58;84.69;102306.00;5026802;28;20026;-74
2022/01/27 05:08:10;;;;;;;35.05;16.00;;;;;;;3.57;84.82;102298.91;5025582;28;20022;-74
2022/01/27 05:10:36;;;;;;;30.67;15.80;;;;;;;3.57;84.64;102290.94;5028325;28;20064;-74
2022/01/27 05:13:12;;;;;;;38.58;16.63;;;;;;;3.57;84.68;102309.56;5026950;28;20073;-74
2022/01/27 05:15:45;;;;;;;32.03;16.25;;;;;;;3.57;84.75;102295.41;5005964;28;20478;-74
2022/01/27 05:18:11;;;;;;;33.38;17.40;;;;;;;3.55;84.96;102298.09;5006764;28;20605;-74
2022/01/27 05:20:37;;;;;;;31.65;16.23;;;;;;;3.53;85.20;102288.38;5007232;28;20177;-74
2022/01/27 05:23:02;;;;;;;29.30;15.65;;;;;;;3.52;85.28;102294.63;5017953;28;20033;-74
2022/01/27 05:25:27;;;;;;;32.45;17.17;;;;;;;3.54;85.52;102284.84;5025859;28;20033;-74
2022/01/27 05:27:53;;;;;;;32.15;16.05;;;;;;;3.55;85.46;102275.97;5026136;28;20039;-74
2022/01/27 05:30:18;;;;;;;33.47;17.88;;;;;;;3.58;85.47;102284.72;5026284;28;20362;-74
2022/01/27 05:32:43;;;;;;;29.95;15.60;;;;;;;3.61;85.60;102267.84;5041631;28;20128;-74
2022/01/27 05:35:09;;;;;;;36.97;16.77;;;;;;;3.63;85.53;102269.56;5028009;28;20351;-74
2022/01/27 05:37:34;;;;;;;34.60;15.80;;;;;;;3.66;85.58;102255.31;5026394;28;20025;-74
2022/01/27 05:40:00;;;;;;;32.92;17.35;;;;;;;3.65;85.25;102257.13;5027317;28;20029;-74
2022/01/27 05:42:25;;;;;;;33.08;16.20;;;;;;;3.68;85.28;102274.78;5026521;28;20027;-74
2022/01/27 05:44:50;;;;;;;32.80;16.52;;;;;;;3.69;85.59;102263.25;5028762;28;20060;-74
2022/01/27 05:47:16;;;;;;;34.35;18.08;;;;;;;3.72;85.32;102265.84;5027187;28;20013;-74
2022/01/27 05:49:41;;;;;;;30.70;15.93;;;;;;;3.76;85.41;102271.97;5030037;28;20033;-74
2022/01/27 05:52:06;;;;;;;36.70;16.88;;;;;;;3.76;85.29;102259.53;5028663;28;20022;-74
2022/01/27 05:54:34;;;;;;;32.17;16.38;;;;;;;3.79;85.32;102264.81;5031480;28;20029;-74
2022/01/27 05:56:59;;;;;;;32.67;15.73;;;;;;;3.80;85.52;102263.00;5031059;28;20035;-74
2022/01/27 05:59:24;;;;;;;32.22;17.13;;;;;;;3.83;85.13;102260.28;5029885;28;20342;-74
2022/01/27 06:01:49;;;;;;;35.35;18.38;;;;;;;3.85;85.37;102256.69;5038278;28;20040;-74
2022/01/27 06:04:15;;;;;;;32.53;16.65;;;;;;;3.88;85.34;102252.19;5049961;28;20122;-74
2022/01/27 06:06:40;;;;;;;34.03;18.63;;;;;;;3.90;85.32;102255.72;5050394;28;20132;-74
2022/01/27 06:09:06;;;;;;;35.83;17.23;;;;;;;3.92;85.10;102260.06;5035756;28;20100;-74
2022/01/27 06:11:31;;;;;;;29.83;15.70;;;;;;;3.93;85.24;102253.84;5030310;28;20018;-74
2022/01/27 06:13:56;;;;;;;33.63;17.20;;;;;;;3.97;85.42;102244.03;5031723;28;20040;-74
2022/01/27 06:16:21;;;;;;;31.30;16.65;;;;;;;3.98;85.57;102253.72;5028472;28;20029;-74
2022/01/27 06:18:47;;;;;;;33.60;16.02;;;;;;;3.98;85.85;102237.75;5031036;28;20500;-74
2022/01/27 06:21:13;;;;;;;35.10;18.15;;;;;;;4.00;86.04;102255.44;5024373;28;20033;-74
2022/01/27 06:23:38;;;;;;;33.78;16.02;;;;;;;4.02;86.45;102242.13;5030039;28;20159;-74
2022/01/27 06:26:03;;;;;;;32.63;17.65;;;;;;;4.02;86.80;102242.13;5025502;28;20112;-74
2022/01/27 06:28:30;;;;;;;33.55;16.40;;;;;;;4.01;87.55;102241.25;5029614;28;20036;-74
2022/01/27 06:30:55;;;;;;;34.83;17.83;;;;;;;4.00;87.59;102234.16;5030033;28;20396;-74
2022/01/27 06:33:22;;;;;;;31.15;17.48;;;;;;;4.01;87.38;102237.69;5048515;28;20114;-74
2022/01/27 06:35:47;;;;;;;35.42;17.77;;;;;;;4.01;87.48;102240.34;5048179;28;20021;-74
2022/01/27 06:38:12;;;;;;;32.45;16.83;;;;;;;4.01;87.88;102248.34;5030467;28;20036;-74
2022/01/27 06:40:37;;;;;;;34.85;17.27;;;;;;;4.02;88.31;102239.44;5029836;28;20041;-74
2022/01/27 06:43:03;;;;;;;33.90;17.90;;;;;;;4.04;88.16;102232.28;5030351;28;20037;-74
2022/01/27 06:45:28;;;;;;;34.28;18.52;;;;;;;4.06;88.49;102221.66;5029191;28;20094;-74
2022/01/27 06:47:53;;;;;;;33.35;19.30;;;;;;;4.06;88.10;102219.84;5028827;28;20469;-74
2022/01/27 06:50:19;;;;;;;35.40;18.77;;;;;;;4.05;88.51;102212.78;5029737;28;20585;-74
2022/01/27 06:52:44;;;;;;;34.20;18.05;;;;;;;4.06;88.42;102206.56;5029123;28;20076;-74
2022/01/27 06:55:11;;;;;;;33.70;17.45;;;;;;;4.08;88.30;102210.03;5030046;28;20044;-74
2022/01/27 06:57:36;;;;;;;35.78;17.90;;;;;;;4.09;88.50;102219.78;5030115;28;20029;-74
2022/01/27 07:00:05;;;;;;;35.17;18.75;;;;;;;4.11;88.55;102215.28;5030436;28;20155;-74
2022/01/27 07:02:30;;;;;;;34.33;18.50;;;;;;;4.12;88.09;102211.72;5027209;28;20033;-74
2022/01/27 07:04:56;;;;;;;33.20;17.20;;;;;;;4.14;88.23;102214.34;5027376;28;20040;-74
2022/01/27 07:07:24;;;;;;;34.05;16.50;;;;;;;4.16;88.39;102207.22;5031005;28;20040;-74
2022/01/27 07:09:49;;;;;;;33.40;17.50;;;;;;;4.15;88.25;102216.97;5028863;28;20032;-74
2022/01/27 07:12:14;;;;;;;39.30;18.75;;;;;;;4.17;nan;102216.91;5030291;28;20053;-74
2022/01/27 07:14:40;;;;;;;34.88;18.10;;;;;;;4.19;87.91;102212.44;5027740;28;20048;-74
2022/01/27 07:17:05;;;;;;;35.60;19.02;;;;;;;4.20;88.23;102211.50;5024163;28;20037;-74
2022/01/27 07:19:30;;;;;;;35.65;18.98;;;;;;;4.20;88.28;102216.84;5028424;28;20409;-74
2022/01/27 07:21:56;;;;;;;32.80;18.13;;;;;;;4.23;87.91;102218.56;5026799;28;20029;-74
2022/01/27 07:24:21;;;;;;;33.13;16.90;;;;;;;4.23;88.04;102219.41;5029092;28;20108;-74
2022/01/27 07:26:46;;;;;;;37.35;20.15;;;;;;;4.26;87.92;102221.13;5027813;28;20029;-74
2022/01/27 07:29:12;;;;;;;37.58;19.00;;;;;;;4.27;87.52;102225.56;5026152;28;20067;-75
2022/01/27 07:31:37;;;;;;;33.53;18.23;;;;;;;4.28;88.18;102229.97;5031293;28;20036;-74
2022/01/27 07:34:02;;;;;;;37.10;18.92;;;;;;;4.30;87.99;102225.47;5048336;28;20504;-74
2022/01/27 07:36:31;;;;;;;37.95;18.77;;;;;;;4.30;87.82;102222.81;5048834;28;20033;-74
2022/01/27 07:38:56;;;;;;;32.88;16.55;;;;;;;4.33;87.63;102233.38;5024449;28;20363;-74
2022/01/27 07:41:21;;;;;;;37.17;19.73;;;;;;;4.34;87.95;102232.47;5025867;28;20040;-74
2022/01/27 07:43:47;;;;;;;33.67;18.27;;;;;;;4.35;87.95;102228.91;5026078;28;20423;-74
2022/01/27 07:46:13;;;;;;;35.13;18.98;;;;;;;4.37;87.49;102221.75;5024206;28;20040;-74
2022/01/27 07:48:39;;;;;;;37.30;20.23;;;;;;;4.40;87.71;102213.69;5025165;28;20022;-74
2022/01/27 07:51:06;;;;;;;39.80;18.88;;;;;;;4.41;87.75;102223.44;5027272;28;20033;-74
2022/01/27 07:53:32;;;;;;;37.28;20.55;;;;;;;4.45;88.59;102227.78;5027804;28;20033;-74
2022/01/27 07:55:57;;;;;;;35.35;18.13;;;;;;;4.45;89.30;102227.78;5025785;28;20401;-74
2022/01/27 07:58:22;;;;;;;31.17;18.08;;;;;;;4.46;90.18;102224.16;5035389;28;20040;-74
2022/01/27 08:00:48;;;;;;;36.80;19.50;;;;;;;4.44;90.63;102234.00;5039706;28;20029;-74
2022/01/27 08:03:13;;;;;;;36.03;19.20;;;;;;;4.43;91.68;102234.91;5035145;28;20033;-74
2022/01/27 08:05:38;;;;;;;38.83;19.98;;;;;;;4.43;92.05;102236.69;5033587;28;20039;-74
2022/01/27 08:08:04;;;;;;;39.67;20.40;;;;;;;4.42;91.91;102235.81;5024232;28;20504;-74
2022/01/27 08:10:36;;;;;;;37.65;20.67;;;;;;;4.43;92.65;102239.38;5031848;28;20028;-74
2022/01/27 08:13:02;;;;;;;36.25;20.55;;;;;;;4.42;92.91;102235.81;5031338;28;20501;-74
2022/01/27 08:15:28;;;;;;;40.42;21.45;;;;;;;4.42;93.67;102238.47;5042794;28;20029;-74
2022/01/27 08:17:53;;;;;;;35.58;20.10;;;;;;;4.40;93.87;102237.66;5026852;28;20120;-74
2022/01/27 08:20:18;;;;;;;39.80;20.80;;;;;;;4.42;94.31;102232.28;5022927;28;20029;-74
2022/01/27 08:22:44;;;;;;;35.35;20.05;;;;;;;4.42;94.49;102219.84;5023719;28;20133;-74
2022/01/27 08:25:10;;;;;;;40.50;21.48;;;;;;;4.41;95.22;102234.09;5024464;28;20103;-74
2022/01/27 08:27:37;;;;;;;36.63;20.67;;;;;;;4.39;95.50;102230.56;5025625;28;20126;-74
2022/01/27 08:30:05;;;;;;;40.55;21.63;;;;;;;4.40;95.25;102229.66;5025269;28;20393;-74
2022/01/27 08:35:13;;;;;;;41.25;21.70;;;;;;;4.40;95.88;102220.81;5024818;28;20033;-74
2022/01/27 08:37:39;;;;;;;37.15;20.65;;;;;;;4.41;95.95;102223.44;5026325;28;20110;-74
2022/01/27 08:40:05;;;;;;;37.78;21.98;;;;;;;4.41;95.98;102223.44;5024596;28;20041;-74
2022/01/27 08:42:30;;;;;;;39.28;21.17;;;;;;;4.42;96.37;102224.28;5037809;28;20471;-74
2022/01/27 08:44:56;;;;;;;42.70;21.38;;;;;;;4.42;96.17;102224.28;5045378;28;20044;-74
2022/01/27 08:47:21;;;;;;;36.92;19.75;;;;;;;4.43;95.96;102226.91;5045113;28;20036;-74
2022/01/27 08:49:47;;;;;;;44.53;22.80;;;;;;;4.44;96.04;102223.34;5045215;28;20033;-74
2022/01/27 08:52:13;;;;;;;41.97;21.98;;;;;;;4.45;96.37;102226.88;5023823;28;20032;-74
2022/01/27 08:54:38;;;;;;;42.80;22.75;;;;;;;4.48;96.45;102225.03;5023437;28;20305;-74
2022/01/27 08:57:04;;;;;;;37.63;21.85;;;;;;;4.51;96.44;102232.03;5026056;28;20033;-74
2022/01/27 08:59:29;;;;;;;36.15;20.50;;;;;;;4.53;96.45;102228.44;5038711;28;20029;-74
2022/01/27 09:01:55;;;;;;;41.78;21.52;;;;;;;4.57;96.73;102223.03;5031749;28;20037;-74
2022/01/27 09:04:20;;;;;;;38.78;22.48;;;;;;;4.58;97.19;102219.44;5024527;28;20076;-74
2022/01/27 09:06:45;;;;;;;37.47;20.80;;;;;;;4.62;96.75;102222.00;5023225;28;20397;-74
2022/01/27 09:09:11;;;;;;;39.20;22.00;;;;;;;4.65;96.99;102218.38;5025470;28;20087;-74
2022/01/27 09:11:36;;;;;;;42.60;22.33;;;;;;;4.69;97.50;102225.38;5032231;28;20045;-74
2022/01/27 09:14:03;;;;;;;38.67;22.63;;;;;;;4.72;97.48;102222.63;5036214;28;20037;-74
2022/01/27 09:16:31;;;;;;;36.67;22.75;;;;;;;4.77;97.24;102217.19;5022381;28;20489;-74
2022/01/27 09:18:58;;;;;;;38.45;21.25;;;;;;;4.80;97.61;102220.66;5024255;28;20086;-74
2022/01/27 09:21:27;;;;;;;41.85;23.30;;;;;;;4.84;97.96;102216.97;5029691;28;20149;-74
2022/01/27 09:23:53;;;;;;;34.95;22.30;;;;;;;4.87;98.04;102224.84;5025314;28;20096;-74
2022/01/27 09:29:03;;;;;;;34.40;20.30;;;;;;;4.90;97.78;102216.81;5033210;28;20067;-74
2022/01/27 09:31:28;;;;;;;36.35;19.75;;;;;;;4.90;98.19;102216.81;5044565;28;20037;-74
2022/01/27 09:33:54;;;;;;;39.80;22.63;;;;;;;4.92;97.91;102223.88;5034474;28;20032;-73
2022/01/27 09:36:19;;;;;;;35.55;20.05;;;;;;;4.90;98.53;102219.47;5031410;28;20516;-73
2022/01/27 09:38:44;;;;;;;37.08;21.25;;;;;;;4.93;98.03;102214.97;5030610;28;20045;-74
2022/01/27 09:41:11;;;;;;;34.17;19.38;;;;;;;4.95;98.46;102213.13;5030498;28;20043;-74
2022/01/27 09:43:37;;;;;;;37.90;19.65;;;;;;;4.97;98.63;102219.31;5030980;28;20127;-74
2022/01/27 09:46:07;;;;;;;34.35;20.33;;;;;;;4.98;98.38;102218.38;5030640;28;20029;-74
2022/01/27 09:48:39;;;;;;;31.83;18.60;;;;;;;4.97;98.34;102217.50;5039599;28;20037;-74
2022/01/27 09:51:25;;;;;;;33.78;19.00;;;;;;;5.00;98.39;102220.06;5027989;28;20104;-73
2022/01/27 09:53:53;;;;;;;41.13;21.48;;;;;;;5.02;98.86;102230.69;5030826;28;20079;-74
2022/01/27 09:56:19;;;;;;;34.67;20.00;;;;;;;5.01;98.67;102231.63;5030146;28;20573;-74
2022/01/27 09:58:44;;;;;;;33.55;19.95;;;;;;;5.03;98.54;102233.31;5049169;28;20056;-73
2022/01/27 10:01:09;;;;;;;32.83;18.52;;;;;;;5.04;98.65;102234.22;5040391;28;20259;-73
2022/01/27 10:03:52;;;;;;;32.03;18.20;;;;;;;5.06;98.79;102240.34;5030456;28;20108;-75
2022/01/27 10:06:18;;;;;;;35.45;18.55;;;;;;;5.07;98.86;102240.31;5028667;28;20530;-74
2022/01/27 10:08:43;;;;;;;31.85;18.60;;;;;;;5.08;98.78;102238.50;5031090;28;20058;-74
2022/01/27 10:11:17;;;;;;;32.13;18.67;;;;;;;5.08;99.13;102242.06;5030741;28;20068;-74
2022/01/27 10:13:44;;;;;;;33.70;19.80;;;;;;;5.10;98.87;102231.38;5029050;28;20037;-74
2022/01/27 10:16:30;;;;;;;31.55;17.73;;;;;;;5.13;99.21;102230.41;5027670;28;20044;-74
2022/01/27 10:19:06;;;;;;;30.67;17.10;;;;;;;5.15;99.51;102239.22;5028561;28;20029;-74
2022/01/27 10:21:33;;;;;;;32.60;18.25;;;;;;;5.16;99.42;102233.84;5029044;28;20305;-74
2022/01/27 10:24:18;;;;;;;31.20;17.25;;;;;;;5.20;99.62;102239.97;5029762;28;20498;-74
2022/01/27 10:26:52;;;;;;;28.23;16.23;;;;;;;5.20;99.26;102230.19;5036157;28;20031;-74
2022/01/27 10:29:29;;;;;;;33.55;18.00;;;;;;;5.20;99.56;102230.19;5039309;28;20029;-74
2022/01/27 10:32:06;;;;;;;31.02;16.73;;;;;;;5.22;99.55;102238.13;5033476;28;20029;-74
2022/01/27 10:34:58;;;;;;;31.50;18.35;;;;;;;5.20;99.92;102235.50;5031050;28;20029;-74
2022/01/27 10:37:24;;;;;;;29.70;18.48;;;;;;;5.20;100.00;102227.53;5030917;28;20026;-74
2022/01/27 10:39:49;;;;;;;30.35;17.65;;;;;;;5.22;100.00;102227.47;5056078;28;20040;-74
2022/01/27 10:42:20;;;;;;;30.95;16.70;;;;;;;5.21;100.00;102231.94;5026740;28;20045;-74
2022/01/27 10:44:53;;;;;;;31.27;17.45;;;;;;;5.24;100.00;102226.53;5026240;28;20025;-74
2022/01/27 10:47:23;;;;;;;33.63;18.80;;;;;;;5.23;100.00;102227.44;5027532;28;20044;-74
2022/01/27 10:49:59;;;;;;;29.85;17.63;;;;;;;5.25;100.00;102233.56;5027275;28;20385;-74
2022/01/27 10:52:35;;;;;;;32.03;17.70;;;;;;;5.26;100.00;102229.13;5026945;28;20419;-73
2022/01/27 10:55:12;;;;;;;29.25;16.05;;;;;;;5.29;100.00;102233.50;5025611;28;20665;-73
2022/01/27 10:57:37;;;;;;;29.08;17.88;;;;;;;5.29;100.00;102233.50;5026963;28;20041;-73
2022/01/27 11:00:07;;;;;;;29.90;16.85;;;;;;;5.32;100.00;102236.09;5026675;28;20401;-74
2022/01/27 11:02:32;;;;;;;29.52;17.10;;;;;;;5.34;100.00;102234.25;5039278;28;20047;-74
2022/01/27 11:04:57;;;;;;;30.65;16.17;;;;;;;5.38;100.00;102230.56;5047091;28;20033;-74
2022/01/27 11:07:25;;;;;;;30.60;17.42;;;;;;;5.40;100.00;102232.28;5047132;28;20039;-74
2022/01/27 11:09:52;;;;;;;30.77;16.30;;;;;;;5.42;100.00;102227.75;5039246;28;20481;-74
2022/01/27 11:12:18;;;;;;;30.40;16.98;;;;;;;5.45;100.00;102226.81;5026309;28;20454;-74
2022/01/27 11:14:50;;;;;;;29.90;18.55;;;;;;;5.49;100.00;102217.81;5027444;28;20559;-74
2022/01/27 11:17:20;;;;;;;28.98;17.25;;;;;;;5.51;100.00;102215.09;5027539;28;20030;-74
2022/01/27 11:28:00;;;;;;;30.95;15.43;;;;;;;5.65;100.00;102201.31;5025664;28;20061;-74
2022/01/27 11:30:31;;;;;;;29.50;17.20;;;;;;;5.70;100.00;102202.06;5008987;28;20137;-74
2022/01/27 11:33:02;;;;;;;30.63;16.52;;;;;;;5.74;100.00;102198.34;5000943;28;20446;-74
2022/01/27 11:35:27;;;;;;;36.30;18.38;;;;;;;5.79;100.00;102196.44;4988384;28;20216;-74
2022/01/27 11:37:55;;;;;;;31.38;17.30;;;;;;;5.82;100.00;102188.31;5004853;28;20117;-74
2022/01/27 11:40:23;;;;;;;31.40;16.85;;;;;;;5.85;100.00;102185.56;5005072;28;20576;-74
2022/01/27 11:42:55;;;;;;;29.33;15.90;;;;;;;5.87;100.00;102190.84;5003134;28;20041;-74
2022/01/27 11:45:20;;;;;;;30.13;17.10;;;;;;;5.90;100.00;102186.28;4988939;28;20137;-74
2022/01/27 11:47:57;;;;;;;29.77;16.77;;;;;;;5.94;100.00;102190.63;5005192;28;20110;-74
2022/01/27 11:50:36;;;;;;;30.27;16.27;;;;;;;5.96;100.00;102174.56;5004341;28;20041;-74
2022/01/27 11:53:07;;;;;;;32.17;18.33;;;;;;;6.00;100.00;102180.69;5004744;28;20129;-74
2022/01/27 11:55:32;;;;;;;27.98;15.40;;;;;;;6.02;100.00;102181.50;5003891;28;20040;-74
2022/01/27 11:58:14;;;;;;;28.88;16.92;;;;;;;6.03;100.00;102177.91;4990862;28;20897;-74
2022/01/27 12:00:40;;;;;;;28.55;15.88;;;;;;;6.04;100.00;102183.19;5025266;28;20072;-74
2022/01/27 12:03:07;;;;;;;29.42;14.45;;;;;;;6.05;100.00;102171.59;5045257;28;20037;-74